Aviation Digital Data Service (ADDS)

Output produced by METARs form (1041 UTC 07 December 2022)
found at http://www.aviationweather.gov/metar/data/
 
KSTF 071035Z AUTO 20004KT 10SM SCT044 BKN050 OVC060 21/20 A3015 RMK AO2
KSTF 071015Z AUTO 19004KT 10SM FEW044 SCT049 OVC065 21/20 A3015 RMK AO2
KSTF 070955Z AUTO 19005KT 10SM FEW047 OVC060 21/20 A3015 RMK AO2
KSTF 070935Z AUTO 19005KT 10SM OVC060 20/20 A3015 RMK AO2
KSTF 070915Z AUTO 19006KT 9SM -RA SCT050 OVC060 21/20 A3014 RMK AO2
KSTF 070855Z AUTO 20004KT 10SM SCT049 OVC055 21/20 A3015 RMK AO2
KSTF 070835Z AUTO 20005KT 10SM OVC055 21/20 A3014 RMK AO2
KSTF 070815Z AUTO 20005KT 10SM OVC055 21/20 A3013 RMK AO2
KSTF 070755Z AUTO 20005KT 10SM OVC055 21/20 A3013 RMK AO2
KSTF 070735Z AUTO 20004KT 10SM OVC055 21/20 A3013 RMK AO2
KSTF 070715Z AUTO 18004KT 10SM OVC055 20/20 A3012 RMK AO2
KSTF 070655Z AUTO 17005KT 10SM OVC055 20/20 A3012 RMK AO2
KSTF 070635Z AUTO 17005KT 10SM OVC055 20/19 A3011 RMK AO2
KSTF 070615Z AUTO 17005KT 10SM FEW031 BKN055 OVC120 20/19 A3011 RMK AO2
KSTF 070555Z AUTO 17007KT 10SM SCT033 BKN039 OVC060 20/19 A3011 RMK AO2
KSTF 070535Z AUTO 18006KT 10SM FEW041 FEW049 OVC055 20/19 A3012 RMK AO2
KSTF 070515Z AUTO 17006KT 10SM BKN040 BKN049 OVC055 20/19 A3012 RMK AO2
KSTF 070455Z AUTO 17007KT 10SM BKN036 BKN042 OVC060 20/19 A3010 RMK AO2
KSTF 070435Z AUTO 17005KT 10SM FEW031 SCT036 BKN045 20/19 A3010 RMK AO2
KSTF 070415Z AUTO 17006KT 10SM FEW038 SCT046 OVC060 20/19 A3010 RMK AO2
KSTF 070355Z AUTO 17005KT 10SM FEW048 OVC060 20/19 A3010 RMK AO2
KSTF 070335Z AUTO 16005KT 10SM OVC060 20/19 A3010 RMK AO2
KSTF 070315Z AUTO 17004KT 10SM FEW048 OVC060 20/19 A3010 RMK AO2
KSTF 070255Z AUTO 16004KT 10SM FEW038 OVC060 20/19 A3009 RMK AO2
KSTF 070235Z AUTO 16003KT 10SM FEW038 SCT050 BKN055 20/19 A3008 RMK AO2
KSTF 070215Z AUTO 15004KT 10SM SCT049 OVC055 20/18 A3008 RMK AO2
KSTF 070155Z AUTO 14003KT 10SM BKN048 BKN055 20/18 A3008 RMK AO2
KSTF 070135Z AUTO 00000KT 10SM SCT047 SCT055 SCT095 20/19 A3007 RMK AO2
KSTF 070115Z AUTO 00000KT 10SM SCT045 BKN055 BKN110 20/18 A3007 RMK AO2
KSTF 070055Z AUTO 17004KT 10SM FEW050 20/18 A3006 RMK AO2
KSTF 070035Z AUTO 00000KT 10SM CLR 20/18 A3005 RMK AO2
KSTF 070015Z AUTO 16003KT 10SM FEW037 SCT049 BKN055 20/18 A3004 RMK AO2
KSTF 062355Z AUTO 00000KT 10SM SCT036 BKN049 BKN055 21/18 A3004 RMK AO2
KSTF 062335Z AUTO 00000KT 10SM FEW046 FEW055 22/19 A3004 RMK AO2
KSTF 062315Z AUTO 17004KT 10SM SCT055 21/18 A3004 RMK AO2
KSTF 062255Z AUTO 00000KT 10SM CLR 22/19 A3004 RMK AO2
KSTF 062235Z AUTO 19004KT 10SM CLR 23/18 A3003 RMK AO2
KSTF 062215Z AUTO 18005KT 10SM CLR 24/18 A3002 RMK AO2
KSTF 062155Z AUTO 19006G11KT 10SM FEW047 BKN055 24/18 A3002 RMK AO2
KSTF 062135Z AUTO 20004KT 10SM BKN055 24/18 A3002 RMK AO2
KSTF 062115Z AUTO 20004KT 10SM FEW042 BKN055 25/18 A3001 RMK AO2
KSTF 062055Z AUTO 00000KT 10SM BKN060 25/18 A3001 RMK AO2
KSTF 062035Z AUTO 24004KT 10SM FEW043 BKN060 25/19 A3001 RMK AO2
KSTF 062015Z AUTO 20005KT 10SM SCT041 BKN047 OVC055 24/19 A3001 RMK AO2
KSTF 061955Z AUTO 20004KT 10SM SCT045 BKN055 25/18 A3001 RMK AO2
KSTF 061935Z AUTO VRB05G12KT 10SM BKN039 BKN049 OVC055 25/18 A3001 RMK AO2
KSTF 061915Z AUTO VRB05G13KT 10SM BKN040 BKN048 25/19 A3001 RMK AO2
KSTF 061855Z AUTO VRB06G12KT 10SM FEW041 FEW055 25/19 A3001 RMK AO2
KSTF 061835Z AUTO 19007KT 160V220 10SM FEW031 FEW037 SCT042 24/19 A3002 RMK AO2
KSTF 061815Z AUTO 20008G13KT 10SM SCT031 BKN037 BKN043 24/19 A3002 RMK AO2
KSTF 061755Z AUTO 20007G16KT 10SM SCT030 SCT034 BKN045 24/19 A3003 RMK AO2
KSTF 061735Z AUTO 20005KT 10SM FEW028 FEW034 SCT039 24/19 A3004 RMK AO2
KSTF 061715Z AUTO 21008G17KT 10SM SCT023 SCT029 BKN037 24/19 A3005 RMK AO2
KSTF 061655Z AUTO 19006KT 10SM OVC023 23/20 A3005 RMK AO2
KSTF 061635Z AUTO 21007G15KT 190V250 10SM BKN021 OVC027 23/20 A3006 RMK AO2
KSTF 061615Z AUTO 21008G16KT 190V250 10SM SCT019 BKN060 23/20 A3006 RMK AO2
KSTF 061555Z AUTO 19007KT 10SM SCT018 SCT022 OVC060 22/20 A3006 RMK AO2
KSTF 061535Z AUTO 19006KT 10SM BKN018 OVC023 22/20 A3006 RMK AO2
KSTF 061515Z AUTO 19006KT 10SM BKN018 OVC024 21/20 A3005 RMK AO2
KSTF 061455Z AUTO 19005KT 10SM BKN018 BKN024 OVC065 21/20 A3005 RMK AO2
KSTF 061435Z AUTO 18006KT 10SM SCT015 BKN021 OVC065 20/19 A3004 RMK AO2
KSTF 061415Z AUTO 18006KT 10SM BKN017 BKN022 OVC065 20/19 A3004 RMK AO2
KSTF 061355Z AUTO 18007KT 10SM SCT018 BKN049 OVC060 20/19 A3003 RMK AO2
KSTF 061335Z AUTO 18005KT 9SM BKN014 BKN018 OVC024 20/19 A3003 RMK AO2
KSTF 061315Z AUTO 19006KT 9SM -RA OVC015 20/19 A3002 RMK AO2 LTG DSNT NE
KSTF 061255Z AUTO 19007KT 10SM BKN015 BKN029 OVC035 20/19 A3001 RMK AO2
KSTF 061235Z AUTO 19007G12KT 10SM SCT015 BKN029 OVC035 20/19 A3000 RMK AO2
KSTF 061215Z AUTO 19007KT 10SM BKN016 BKN020 OVC026 20/19 A3000 RMK AO2
KSTF 061155Z AUTO 19007KT 10SM BKN014 BKN018 OVC029 20/19 A2999 RMK AO2
KSTF 061135Z AUTO 20007G12KT 10SM BKN014 OVC018 20/19 A2998 RMK AO2
KSTF 061115Z AUTO 19006KT 10SM BKN014 OVC031 20/19 A2998 RMK AO2
KSTF 061055Z AUTO 19006KT 10SM OVC015 20/19 A2998 RMK AO2
KSTF 061035Z AUTO 19005KT 10SM OVC014 20/19 A2998 RMK AO2
KSTF 061015Z AUTO 19005KT 10SM OVC015 20/19 A2998 RMK AO2
KSTF 060955Z AUTO 19006KT 10SM OVC016 20/19 A2997 RMK AO2
KSTF 060935Z AUTO 19005KT 10SM OVC016 20/19 A2997 RMK AO2
KSTF 060915Z AUTO 19005KT 10SM OVC017 20/19 A2997 RMK AO2
KSTF 060855Z AUTO 19006KT 10SM OVC016 20/19 A2997 RMK AO2
KSTF 060835Z AUTO 19006KT 10SM OVC015 20/19 A2997 RMK AO2
KSTF 060815Z AUTO 19006KT 10SM OVC016 20/19 A2996 RMK AO2
KSTF 060755Z AUTO 18006KT 10SM OVC018 20/19 A2996 RMK AO2
KSTF 060735Z AUTO 18007KT 10SM BKN019 OVC060 20/19 A2996 RMK AO2
KSTF 060715Z AUTO 18005KT 10SM BKN018 OVC024 20/19 A2996 RMK AO2
KSTF 060655Z AUTO 18004KT 10SM OVC016 20/19 A2996 RMK AO2
KSTF 060635Z AUTO 18006KT 10SM OVC014 20/19 A2995 RMK AO2
KSTF 060615Z AUTO 18005KT 10SM OVC014 20/19 A2995 RMK AO2
KSTF 060555Z AUTO 18004KT 10SM OVC013 20/19 A2995 RMK AO2
KSTF 060535Z AUTO 18006KT 10SM OVC011 19/19 A2995 RMK AO2
KSTF 060515Z AUTO 18006KT 9SM OVC011 19/19 A2995 RMK AO2
KSTF 060455Z AUTO 18006KT 9SM OVC012 19/19 A2995 RMK AO2
KSTF 060435Z AUTO 18006KT 8SM BKN013 19/18 A2994 RMK AO2
KSTF 060415Z AUTO 18006KT 9SM SCT013 SCT032 19/18 A2994 RMK AO2
KSTF 060355Z AUTO 18006KT 9SM FEW013 SCT033 SCT046 19/18 A2994 RMK AO2
KSTF 060335Z AUTO 18007KT 9SM FEW013 FEW026 SCT050 19/18 A2993 RMK AO2
KSTF 060315Z AUTO 18006KT 9SM CLR 19/18 A2993 RMK AO2
KSTF 060255Z AUTO 18006KT 9SM CLR 19/18 A2993 RMK AO2
KSTF 060235Z AUTO 19005KT 9SM SCT120 19/18 A2993 RMK AO2
KSTF 060215Z AUTO 19006KT 10SM SCT120 19/18 A2993 RMK AO2
KSTF 060155Z AUTO 18007KT 9SM FEW120 19/18 A2993 RMK AO2
KSTF 060135Z AUTO 18005KT 9SM FEW120 18/18 A2993 RMK AO2
KSTF 060115Z AUTO 18006KT 9SM CLR 18/18 A2992 RMK AO2
KSTF 060055Z AUTO 18005KT 9SM CLR 18/18 A2992 RMK AO2
KSTF 060035Z AUTO 17006KT 9SM SCT075 18/18 A2992 RMK AO2
KSTF 060015Z AUTO 17006KT 9SM FEW030 FEW036 OVC075 18/18 A2992 RMK AO2
KSTF 052355Z AUTO 18004KT 10SM BKN065 OVC075 19/18 A2992 RMK AO2
KSTF 052335Z AUTO 18004KT 10SM OVC060 19/18 A2991 RMK AO2
KSTF 052315Z AUTO 17006KT 10SM BKN065 19/18 A2991 RMK AO2
KSTF 052255Z AUTO 18006KT 10SM SCT070 19/18 A2990 RMK AO2
KSTF 052235Z AUTO 19008KT 10SM BKN026 OVC070 20/18 A2991 RMK AO2
KSTF 052215Z AUTO 19007KT 10SM SCT026 BKN070 OVC090 20/18 A2992 RMK AO2
KSTF 052155Z AUTO VRB06KT 10SM FEW022 BKN049 OVC090 20/18 A2991 RMK AO2
KSTF 052135Z AUTO VRB05KT 10SM FEW018 BKN050 OVC080 20/19 A2992 RMK AO2
KSTF 052115Z AUTO 20006G11KT 9SM FEW037 SCT048 OVC055 20/19 A2991 RMK AO2
KSTF 052055Z AUTO 20005G11KT 9SM SCT021 SCT039 OVC049 20/19 A2991 RMK AO2
KSTF 052035Z AUTO 20007KT 10SM BKN021 OVC060 20/18 A2991 RMK AO2
KSTF 052015Z AUTO VRB04KT 8SM BKN060 OVC080 20/19 A2991 RMK AO2
KSTF 051955Z AUTO 18007KT 7SM FEW015 BKN060 OVC080 19/18 A2990 RMK AO2
KSTF 051935Z AUTO 19006KT 5SM BR BKN060 OVC070 18/18 A2991 RMK AO2
KSTF 051915Z AUTO 19006KT 5SM BR OVC070 17/17 A2992 RMK AO2
KSTF 051855Z AUTO 18005KT 4SM BR FEW041 SCT060 BKN070 17/17 A2993 RMK AO2
KSTF 051835Z AUTO 19004KT 3SM BR SCT008 BKN041 OVC060 16/16 A2995 RMK AO2
KSTF 051815Z AUTO 20004KT 3SM -RA BR FEW005 BKN008 OVC047 15/15 A2996 RMK AO2
KSTF 051755Z AUTO 19005KT 2 1/2SM BR BKN004 BKN009 OVC044 15/15 A2996 RMK AO2 P0001
KSTF 051735Z AUTO 18007KT 1 3/4SM BR OVC003 14/14 A2997 RMK AO2
KSTF 051715Z AUTO 20003KT 1SM BR OVC003 13/13 A2998 RMK AO2
KSTF 051655Z AUTO 00000KT 3/4SM BR OVC003 13/13 A2999 RMK AO2 LTG DSNT NW
KSTF 051635Z AUTO 18006KT 1SM BR OVC003 13/13 A3000 RMK AO2
KSTF 051615Z AUTO 16006KT 1SM BR OVC003 12/12 A3001 RMK AO2
KSTF 051555Z AUTO 16006KT 1 1/4SM BR OVC003 12/12 A3001 RMK AO2
KSTF 051535Z AUTO 18005KT 1 1/2SM BR OVC003 11/11 A3003 RMK AO2
KSTF 051515Z AUTO 16005KT 1 3/4SM BR OVC003 11/11 A3002 RMK AO2
KSTF 051455Z AUTO 16005KT 2 1/2SM BR OVC003 11/11 A3002 RMK AO2
KSTF 051435Z AUTO 16005KT 1 3/4SM BR OVC004 11/11 A3002 RMK AO2
KSTF 051415Z AUTO 17003KT 5SM BR OVC004 11/11 A3002 RMK AO2
KSTF 051355Z AUTO 17006KT 7SM OVC004 11/11 A3001 RMK AO2
KSTF 051335Z AUTO 16006KT 8SM OVC005 10/11 A3001 RMK AO2
KSTF 051315Z AUTO 16006KT 6SM BR OVC004 10/10 A3001 RMK AO2
KSTF 051255Z AUTO 14005KT 9SM OVC005 10/10 A3002 RMK AO2
KSTF 051235Z AUTO 15005KT 8SM OVC004 10/10 A3001 RMK AO2
KSTF 051215Z AUTO 16006KT 10SM OVC006 10/10 A3001 RMK AO2
KSTF 051155Z AUTO 15006KT 10SM BKN006 OVC009 10/10 A3001 RMK AO2
KSTF 051135Z AUTO 15004KT 10SM OVC009 10/10 A3001 RMK AO2
KSTF 051115Z AUTO 00000KT 9SM OVC010 10/10 A3002 RMK AO2
KSTF 051055Z AUTO 16003KT 6SM UP BR OVC011 09/09 A3002 RMK AO2
KSTF 051035Z AUTO 16003KT 8SM -RA OVC013 09/09 A3002 RMK AO2
KSTF 051015Z AUTO 16005KT 7SM UP OVC013 09/09 A3002 RMK AO2
KSTF 050955Z AUTO 00000KT 10SM OVC014 09/09 A3004 RMK AO2
KSTF 050935Z AUTO 15004KT 6SM UP BR OVC016 09/09 A3004 RMK AO2
KSTF 050915Z AUTO 17004KT 8SM UP OVC017 09/09 A3005 RMK AO2
KSTF 050855Z AUTO 00000KT 5SM UP BR OVC017 09/09 A3005 RMK AO2
KSTF 050835Z AUTO 00000KT 5SM UP BR OVC019 09/09 A3006 RMK AO2
KSTF 050815Z AUTO 16004KT 10SM OVC020 09/09 A3006 RMK AO2
KSTF 050755Z AUTO 18004KT 10SM OVC022 09/09 A3007 RMK AO2
KSTF 050735Z AUTO 00000KT 9SM -RA OVC022 09/09 A3007 RMK AO2
KSTF 050715Z AUTO 00000KT 10SM OVC023 09/09 A3007 RMK AO2
KSTF 050655Z AUTO 00000KT 10SM OVC023 09/08 A3008 RMK AO2
KSTF 050635Z AUTO 00000KT 10SM OVC025 09/08 A3009 RMK AO2
KSTF 050615Z AUTO 07003KT 9SM -RA OVC025 09/08 A3009 RMK AO2
KSTF 050555Z AUTO 06004KT 10SM OVC026 09/08 A3011 RMK AO2
KSTF 050535Z AUTO 00000KT 10SM OVC026 09/08 A3012 RMK AO2
KSTF 050515Z AUTO 03003KT 10SM -RA OVC025 09/08 A3012 RMK AO2
KSTF 050455Z AUTO 00000KT 10SM OVC026 08/08 A3013 RMK AO2
KSTF 050435Z AUTO 00000KT 10SM -RA OVC027 08/08 A3013 RMK AO2
KSTF 050415Z AUTO 03005KT 10SM -RA BKN029 OVC034 08/08 A3014 RMK AO2
KSTF 050355Z AUTO 00000KT 8SM -RA OVC032 08/07 A3014 RMK AO2
KSTF 050335Z AUTO 00000KT 9SM -RA OVC033 08/08 A3015 RMK AO2
KSTF 050315Z AUTO 00000KT 10SM -RA OVC034 08/07 A3014 RMK AO2
KSTF 050255Z AUTO 03004KT 8SM -RA BKN034 BKN040 OVC047 09/07 A3015 RMK AO2
KSTF 050235Z AUTO VRB03KT 10SM -RA FEW034 SCT042 OVC048 09/07 A3016 RMK AO2
KSTF 050215Z AUTO 00000KT 10SM BKN045 BKN050 OVC070 09/07 A3016 RMK AO2
KSTF 050155Z AUTO 04005KT 10SM BKN044 OVC050 09/08 A3015 RMK AO2
KSTF 050135Z AUTO 00000KT 10SM -RA FEW031 SCT043 OVC050 09/08 A3017 RMK AO2
KSTF 050115Z AUTO 00000KT 10SM FEW007 SCT032 OVC043 09/08 A3017 RMK AO2
KSTF 050055Z AUTO 00000KT 9SM -RA FEW034 OVC044 10/08 A3018 RMK AO2
KSTF 050035Z AUTO 00000KT 10SM OVC045 10/08 A3018 RMK AO2
KSTF 050015Z AUTO 00000KT 10SM OVC046 10/08 A3017 RMK AO2
KSTF 042355Z AUTO 00000KT 10SM OVC045 10/07 A3018 RMK AO2
KSTF 042335Z AUTO 00000KT 10SM OVC046 10/07 A3018 RMK AO2
KSTF 042315Z AUTO VRB04KT 10SM OVC047 10/07 A3018 RMK AO2
KSTF 042255Z AUTO 00000KT 10SM BKN048 OVC120 10/07 A3017 RMK AO2
KSTF 042235Z AUTO 00000KT 10SM FEW050 BKN065 BKN100 10/07 A3017 RMK AO2
KSTF 042215Z AUTO 30004KT 10SM FEW065 FEW100 SCT120 10/07 A3017 RMK AO2
KSTF 042155Z AUTO 15003KT 10SM FEW070 FEW085 BKN120 11/07 A3015 RMK AO2
KSTF 042135Z AUTO 16004KT 10SM FEW055 FEW075 BKN110 11/07 A3016 RMK AO2
KSTF 042115Z AUTO 00000KT 10SM SCT120 11/07 A3016 RMK AO2
KSTF 042055Z AUTO 18005KT 10SM BKN120 11/06 A3016 RMK AO2
KSTF 042035Z AUTO 00000KT 10SM SCT120 11/06 A3018 RMK AO2
KSTF 042015Z AUTO 00000KT 10SM FEW048 12/05 A3019 RMK AO2
KSTF 041955Z AUTO 00000KT 10SM SCT048 12/06 A3020 RMK AO2
KSTF 041935Z AUTO 00000KT 10SM FEW049 11/05 A3021 RMK AO2
KSTF 041915Z AUTO 00000KT 10SM FEW048 11/05 A3022 RMK AO2
KSTF 041855Z AUTO 00000KT 10SM CLR 10/05 A3023 RMK AO2
KSTF 041835Z AUTO 01004KT 10SM SCT041 10/05 A3023 RMK AO2
KSTF 041815Z AUTO VRB04KT 10SM OVC041 09/04 A3026 RMK AO2
KSTF 041755Z AUTO 00000KT 10SM OVC042 09/04 A3027 RMK AO2
KSTF 041735Z AUTO 00000KT 10SM OVC042 08/04 A3027 RMK AO2
KSTF 041715Z AUTO VRB03KT 10SM SCT013 OVC042 08/04 A3029 RMK AO2
KSTF 041555Z AUTO 00000KT 10SM OVC042 07/03 A3031 RMK AO2
KSTF 041535Z AUTO 00000KT 10SM OVC043 07/03 A3030 RMK AO2
KSTF 041515Z AUTO 00000KT 10SM OVC041 06/03 A3032 RMK AO2
KSTF 041455Z AUTO 00000KT 10SM OVC041 06/03 A3031 RMK AO2
KSTF 041435Z AUTO 36003KT 10SM OVC041 05/03 A3032 RMK AO2
KSTF 041415Z AUTO 00000KT 10SM BKN041 05/03 A3031 RMK AO2
KSTF 041355Z AUTO VRB04KT 10SM FEW043 05/03 A3031 RMK AO2
KSTF 041335Z AUTO 00000KT 10SM CLR 05/03 A3030 RMK AO2
KSTF 041315Z AUTO 00000KT 10SM CLR 04/03 A3030 RMK AO2
KSTF 041255Z AUTO 00000KT 10SM FEW034 SCT041 SCT048 04/03 A3030 RMK AO2
KSTF 041235Z AUTO 00000KT 10SM BKN033 BKN040 OVC048 04/03 A3030 RMK AO2
KSTF 041215Z AUTO 00000KT 10SM OVC030 04/03 A3029 RMK AO2
KSTF 041155Z AUTO 00000KT 10SM BKN030 BKN036 OVC049 04/03 A3028 RMK AO2
KSTF 041135Z AUTO 00000KT 10SM OVC035 05/03 A3028 RMK AO2
KSTF 041115Z AUTO 00000KT 10SM OVC035 05/03 A3028 RMK AO2
KSTF 041055Z AUTO 00000KT 10SM OVC034 05/03 A3028 RMK AO2